Big Canoe, Georgia
Current Conditions -  °F | °C
As of 3:35 PM on Thursday 27 Nov 2014 (Local Time) from KCNI Reporting Station
Overcast Overcast  
Wind Chill: 37°   Ceiling: 3300
Heat Index: 41°   Visibility: 10mi
Dew Point: 25°   Wind: 6mph
Humidity: 53%   Direction: 310°NW
Pressure: 30.29"   Gusts: NA
Location:  34.4645°N, 84.4746°W
Report Text: KCNI 272035Z AUTO 31005KT 10SM BKN033 OVC039 05/M04 A3029 RMK AO2
Loading
Personal Weather Stations






























Interactive Weather Map New forecast layout! Learn more

10-Day Weather Forecast

Advertisements
Track Severe Weather on mobile